Wayne, WV (25570)

8:55 PM EST on March 06, 2015 (GMT -0500)
RAWS BEECH FORK WV US | Change Station
CLOSE
Current Station
Personal Weather Station
Location: Lavalette, WV
Elevation: 734 ft
Nearby Weather Stations
Active Advisory: Flood Warning Active Notice: Record Report

Elev 734 ft 38.30 °N, 82.42 °W | Updated 41 minutes ago

Clear
Clear
20 °F
Feels Like 20 °F
N
2
Wind Variable Wind from SE
Gusts 4.0 mph

Today
High -- | Low -- °F
--% Chance of Precip.
Yesterday
High -- | Low -- °F
Precip. -- in
6:54 AM 6:27 PM
Full, 98% visible
Pressure 30.45 in
Visibility 9.0 miles
Clouds Clear
Windchill 20 °F
Dew Point 18 °F
Humidity 93%
Rainfall in
Snow Depth Not available.
UV 0 out of 12
Pollen 1.20 out of 12
Air Quality Not available.
Flu Activity Not available.
METAR KHTS 070151Z 00000KT 9SM CLR M07/M08 A3040 RMK AO2 SLP309 T10721083

More Conditions Fewer Conditions

Pressure 30.45 in
Visibility 9.0 miles
Clouds Clear
Windchill 20 °F
Dew Point 18 °F
Humidity 93%
Rainfall in
Snow Depth Not available.
UV 0 out of 12
Pollen 1.20 out of 12
Air Quality Not available.
Flu Activity Not available.
METAR KHTS 070151Z 00000KT 9SM CLR M07/M08 A3040 RMK AO2 SLP309 T10721083

More Conditions Fewer Conditions

10-Day Weather Forecast

Almanac

Astronomy

Mar. 06, 2015 Rise Set
Actual Time
Civil Twilight
Nautical Twilight
Astronomical Twilight
Moon
Length of Visible Light
Length of Day
Tomorrow will be .
, % of the Moon is Illuminated

Today's Extremes

State Highs State Lows

Community

WunderPhotos

Upload Photos

1,803,494 photos uploaded!

WunderBlogs® & News

Nearby

Air Quality

  Air Quality AQ Index Pollutant
Not available.

Snow Depth

Station Depth Elevation

Earthquake Activity

City Distance Mag. Time & Date
Minimum magnitude displayed is 2.5.

Coastal Water Temperatures

Place Temperature

Nearby Weather Stations

Flood Warning
Statement as of 6:09 PM EST on March 06, 2015

The Flood Warning continues for
the Ohio River at Huntington.
* At 5:00 PM Friday the stage was 51.2 feet.
* Minor flooding is occurring and minor flooding is forecast.
* Flood stage is 50.0 feet.
* The river is currently cresting.
* Forecast... the river will continue to fall to below flood stage by early
Saturday.
* At stages near 51.0 feet... West Virginia Route 60 east, Main Street, above pats
branch is flooded.


Lat... Lon 3848 8235 3846 8221 3834 8254 3843 8265